METAR AND TAF INFORMATION
METAR FOR EEKE
ADDS - METARS form results

(1050 UTC 03 October 2022)
Data provider http://aviationweather.gov/metar/data/
 
METAR text: EEKE 031050Z 36016G26KT 9999 FEW032 14/04 Q1009
Conditions at: EEKE (KURESSAARE , EE) observed 1050 UTC 03 October 2022
Temperature: 14.0°C (57°F)
Dewpoint: 4.0°C (39°F) [RH = 51%]
Pressure (altimeter): 29.79 inches Hg (1009.0 mb)
Winds: from the N (360 degrees) at 18 MPH (16 knots; 8.2 m/s)
gusting to 30 MPH (26 knots; 13.4 m/s)
Visibility: 6 or more miles (10+ km)
Ceiling: at least 12,000 feet AGL
Clouds: few clouds at 3200 feet AGL
Weather: no significant weather observed at this time

METAR text: EEKE 031020Z 36019KT 9999 FEW032 13/05 Q1009
Conditions at: EEKE (KURESSAARE , EE) observed 1020 UTC 03 October 2022
Temperature: 13.0°C (55°F)
Dewpoint: 5.0°C (41°F) [RH = 58%]
Pressure (altimeter): 29.79 inches Hg (1009.0 mb)
Winds: from the N (360 degrees) at 22 MPH (19 knots; 9.8 m/s)
Visibility: 6 or more miles (10+ km)
Ceiling: at least 12,000 feet AGL
Clouds: few clouds at 3200 feet AGL
Weather: no significant weather observed at this time

Forecast for: EEKE (KURESSAARE , EE)
Text: TAF EEKE 030300Z 0304/0310 01010KT 9999 SCT020
Forecast period: 0400 to 0800 UTC 03 October 2022
Forecast type: FROM: standard forecast or significant change
Winds: from the N (10 degrees) at 12 MPH (10 knots; 5.1 m/s)
Visibility: 6 or more miles (10+ km)
Ceiling: at least 12,000 feet AGL
Clouds: scattered clouds at 2000 feet AGL
Weather: no significant weather forecast for this period
Text: BECMG 0308/0310 01014G25KT
Forecast period: 0800 to 1000 UTC 03 October 2022
Forecast type: BECOMING: Conditions expected to become as follows by 1000 UTC 03 October 2022
Winds: from the N (10 degrees) at 16 MPH (14 knots; 7.2 m/s)
gusting to 29 MPH (25 knots; 12.9 m/s)
Visibility: 6 or more miles (10+ km)
Ceiling: at least 12,000 feet AGL
Clouds: scattered clouds at 2000 feet AGL
Weather: no significant weather forecast for this period

 AIRPORT MAP

 RUNWAY INFORMATION
Runway 05 Runway length 2621 ft Runway width 98 ft
Runway elevation 11 ft Runway displaced threshold 0 ft Runway heading 59
Runway 23 Runway length 2621 ft Runway width 98 ft
Runway elevation 5 ft Runway displaced threshold 0 ft Runway heading 239
Runway 17 Runway length 4980 ft Runway width 98 ft
Runway elevation 14 ft Runway displaced threshold 0 ft Runway heading 180
Runway 35 Runway length 4980 ft Runway width 98 ft
Runway elevation 8 ft Runway displaced threshold 0 ft Runway heading 360

 AIRPORT FREQUENCIES
Type TWR Name TWR Frequency 118.05 MHZ

 AIRPORT NEAR NAVIGATION AIDS
Type VOR-DME Name Kuressaare Frequency 112400 KHZ
Type NDB Name Kuressaare Frequency 350 KHZ





Powered by Virtual Airlines Manager

Maps by Rafael Santos